createdAt,value
2017-12-25T00:00:44.111Z,96346.93
2017-12-25T00:05:51.346Z,96343.98
2017-12-25T00:08:20.377Z,96341.07
2017-12-25T00:10:49.425Z,96337.52
2017-12-25T00:13:18.485Z,96339.34
2017-12-25T00:15:47.529Z,96338.05
2017-12-25T00:18:16.585Z,96340.50
2017-12-25T00:20:45.691Z,96333.59
2017-12-25T00:23:14.718Z,96341.06
2017-12-25T00:25:44.663Z,96339.23
2017-12-25T00:28:13.730Z,96339.93
2017-12-25T00:30:42.766Z,96335.63
2017-12-25T00:33:13.738Z,96334.87
2017-12-25T00:35:42.853Z,96330.73
2017-12-25T00:38:14.004Z,96329.16
2017-12-25T00:40:43.045Z,96330.74
2017-12-25T00:43:12.097Z,96330.06
2017-12-25T00:45:41.168Z,96328.27
2017-12-25T00:48:10.216Z,96338.47
2017-12-25T00:50:40.157Z,96335.64
2017-12-25T00:53:30.357Z,96333.15
2017-12-25T00:55:59.479Z,96334.44
2017-12-25T00:58:30.555Z,96331.92
2017-12-25T01:01:03.389Z,96336.80
2017-12-25T01:03:37.857Z,96338.78
2017-12-25T01:06:07.219Z,96334.84
2017-12-25T01:08:36.266Z,96338.89
2017-12-25T01:11:05.310Z,96336.63
2017-12-25T01:13:34.349Z,96331.58
2017-12-25T01:16:03.417Z,96328.48
2017-12-25T01:18:32.443Z,96329.20
2017-12-25T01:21:02.471Z,96330.11
2017-12-25T01:26:13.414Z,96334.83
2017-12-25T01:28:42.450Z,96335.28
2017-12-25T01:31:11.486Z,96339.09
2017-12-25T01:33:48.201Z,96335.12
2017-12-25T01:36:17.254Z,96340.30
2017-12-25T01:38:47.221Z,96341.05
2017-12-25T01:41:16.289Z,96339.55
2017-12-25T01:46:21.072Z,96338.12
2017-12-25T01:49:02.654Z,96338.66
2017-12-25T01:51:45.474Z,96345.88
2017-12-25T01:54:14.498Z,96335.41
2017-12-25T01:56:46.858Z,96332.12
2017-12-25T02:02:18.152Z,96317.66
2017-12-25T02:05:01.995Z,96311.16
2017-12-25T02:10:07.619Z,96309.99
2017-12-25T02:13:01.934Z,96311.80
2017-12-25T02:15:31.002Z,96311.59
2017-12-25T02:18:03.150Z,96304.84
2017-12-25T02:20:32.329Z,96310.56
2017-12-25T02:23:01.383Z,96315.36
2017-12-25T02:25:30.433Z,96311.63
2017-12-25T02:27:59.486Z,96300.87
2017-12-25T02:30:28.542Z,96297.13
2017-12-25T02:32:57.601Z,96296.34
2017-12-25T02:35:26.687Z,96295.66
2017-12-25T02:37:55.762Z,96295.94
2017-12-25T02:40:24.829Z,96299.05
2017-12-25T02:42:54.857Z,96292.25
2017-12-25T02:45:23.915Z,96292.17
2017-12-25T02:47:52.984Z,96290.02
2017-12-25T02:50:22.039Z,96284.19
2017-12-25T02:52:51.090Z,96284.46
2017-12-25T02:55:20.148Z,96281.81
2017-12-25T03:00:27.644Z,96288.18
2017-12-25T03:03:00.262Z,96284.61
2017-12-25T03:05:29.319Z,96287.08
2017-12-25T03:08:07.533Z,96282.69
2017-12-25T03:10:36.914Z,96283.45
2017-12-25T03:13:07.006Z,96284.16
2017-12-25T03:15:36.068Z,96288.82
2017-12-25T03:18:05.120Z,96287.36
2017-12-25T03:20:34.162Z,96276.20
2017-12-25T03:23:03.224Z,96277.83
2017-12-25T03:25:32.281Z,96271.45
2017-12-25T03:28:02.326Z,96263.93
2017-12-25T03:33:14.122Z,96261.81
2017-12-25T03:35:44.134Z,96262.42
2017-12-25T03:38:15.213Z,96263.41
2017-12-25T03:40:44.266Z,96256.99
2017-12-25T03:43:39.416Z,96250.28
2017-12-25T03:46:19.739Z,96251.55
2017-12-25T03:48:48.805Z,96254.27
2017-12-25T03:51:18.003Z,96251.20
2017-12-25T03:53:47.122Z,96247.51
2017-12-25T03:56:16.181Z,96248.63
2017-12-25T03:58:45.229Z,96248.68
2017-12-25T04:01:16.198Z,96248.43
2017-12-25T04:03:45.247Z,96240.81
2017-12-25T04:06:14.301Z,96240.48
2017-12-25T04:08:43.350Z,96239.62
2017-12-25T04:11:13.381Z,96235.33
2017-12-25T04:13:49.362Z,96239.38
2017-12-25T04:16:35.314Z,96238.88
2017-12-25T04:19:05.322Z,96228.38
2017-12-25T04:21:34.370Z,96231.69
2017-12-25T04:24:04.341Z,96230.86
2017-12-25T04:26:37.978Z,96230.80
2017-12-25T04:29:08.941Z,96227.63
2017-12-25T04:31:39.897Z,96229.72
2017-12-25T04:34:10.865Z,96233.64
2017-12-25T04:36:39.909Z,96233.77
2017-12-25T04:39:10.874Z,96232.64
2017-12-25T04:41:39.920Z,96226.31
2017-12-25T04:44:17.834Z,96223.48
2017-12-25T04:46:47.886Z,96219.22
2017-12-25T04:49:28.023Z,96226.30
2017-12-25T04:51:57.061Z,96227.19
2017-12-25T04:54:26.149Z,96227.94
2017-12-25T04:56:55.220Z,96225.21
2017-12-25T04:59:24.265Z,96219.04
2017-12-25T05:01:53.321Z,96213.54
2017-12-25T05:04:32.031Z,96212.41
2017-12-25T05:07:09.926Z,96215.75
2017-12-25T05:09:39.870Z,96213.52
2017-12-25T05:12:13.893Z,96213.53
2017-12-25T05:14:42.936Z,96204.15
2017-12-25T05:17:39.288Z,96206.13
2017-12-25T05:22:43.550Z,96203.09
2017-12-25T05:25:16.592Z,96207.63
2017-12-25T05:27:50.506Z,96198.53
2017-12-25T05:30:20.499Z,96203.95
2017-12-25T05:32:54.334Z,96192.00
2017-12-25T05:35:23.382Z,96194.55
2017-12-25T05:40:58.282Z,96186.11
2017-12-25T05:43:37.805Z,96183.02
2017-12-25T05:46:06.963Z,96190.02
2017-12-25T05:48:36.015Z,96184.59
2017-12-25T05:51:05.067Z,96185.71
2017-12-25T05:56:30.294Z,96166.20
2017-12-25T05:59:02.441Z,96174.53
2017-12-25T06:01:31.527Z,96167.01
2017-12-25T06:04:02.522Z,96169.03
2017-12-25T06:06:33.577Z,96165.48
2017-12-25T06:09:02.626Z,96170.70
2017-12-25T06:11:33.623Z,96168.22
2017-12-25T06:14:02.677Z,96169.17
2017-12-25T06:19:10.194Z,96166.54
2017-12-25T06:21:39.245Z,96167.06
2017-12-25T06:24:08.311Z,96174.16
2017-12-25T06:26:54.790Z,96170.45
2017-12-25T06:29:23.839Z,96164.45
2017-12-25T06:34:34.210Z,96162.10
2017-12-25T06:37:26.198Z,96161.68
2017-12-25T06:39:55.243Z,96153.70
2017-12-25T06:42:29.838Z,96156.80
2017-12-25T06:44:59.777Z,96148.77
2017-12-25T06:47:28.834Z,96147.18
2017-12-25T06:49:57.892Z,96148.45
2017-12-25T06:52:26.966Z,96150.72
2017-12-25T06:54:56.018Z,96147.77
2017-12-25T06:57:25.322Z,96143.48
2017-12-25T06:59:54.373Z,96141.30
2017-12-25T07:02:26.874Z,96145.71
2017-12-25T07:04:55.937Z,96139.64
2017-12-25T07:07:25.062Z,96139.14
2017-12-25T07:09:54.128Z,96140.00
2017-12-25T07:12:23.196Z,96138.97
2017-12-25T07:14:52.247Z,96136.19
2017-12-25T07:17:21.362Z,96132.69
2017-12-25T07:19:50.409Z,96126.09
2017-12-25T07:22:19.471Z,96123.50
2017-12-25T07:24:48.521Z,96123.22
2017-12-25T07:27:19.590Z,96119.06
2017-12-25T07:29:48.638Z,96120.19
2017-12-25T07:32:17.686Z,96126.03
2017-12-25T07:34:46.740Z,96129.80
2017-12-25T07:37:15.790Z,96132.16
2017-12-25T07:39:44.835Z,96136.94
2017-12-25T07:42:14.880Z,96132.75
2017-12-25T07:44:44.022Z,96133.27
2017-12-25T07:49:50.244Z,96131.97
2017-12-25T07:52:20.290Z,96130.63
2017-12-25T07:54:49.333Z,96131.77
2017-12-25T07:57:19.424Z,96128.83
2017-12-25T07:59:48.469Z,96132.81
2017-12-25T08:02:17.754Z,96132.08
2017-12-25T08:04:46.770Z,96130.70
2017-12-25T08:07:15.825Z,96131.84
2017-12-25T08:09:44.875Z,96132.27
2017-12-25T08:12:17.033Z,96127.39
2017-12-25T08:14:46.084Z,96129.92
2017-12-25T08:17:16.098Z,96124.27
2017-12-25T08:19:45.160Z,96119.81
2017-12-25T08:22:14.213Z,96119.52
2017-12-25T08:29:53.716Z,96124.34
2017-12-25T08:32:24.683Z,96124.80
2017-12-25T08:34:53.734Z,96123.02
2017-12-25T08:37:22.886Z,96130.95
2017-12-25T08:39:52.946Z,96121.70
2017-12-25T08:42:22.041Z,96118.67
2017-12-25T08:47:27.414Z,96121.64
2017-12-25T08:50:00.309Z,96120.56
2017-12-25T08:52:31.327Z,96121.81
2017-12-25T08:55:01.352Z,96118.34
2017-12-25T09:00:07.782Z,96118.77
2017-12-25T09:02:40.626Z,96112.09
2017-12-25T09:07:53.066Z,96111.90
2017-12-25T09:10:22.122Z,96113.80
2017-12-25T09:12:51.194Z,96114.77
2017-12-25T09:15:21.141Z,96112.94
2017-12-25T09:17:50.310Z,96115.49
2017-12-25T09:20:19.350Z,96114.99
2017-12-25T09:22:48.398Z,96116.61
2017-12-25T09:25:17.452Z,96112.31
2017-12-25T09:30:22.676Z,96106.45
2017-12-25T09:32:51.728Z,96103.23
2017-12-25T09:35:20.766Z,96099.77
2017-12-25T09:37:49.842Z,96099.80
2017-12-25T09:40:18.886Z,96099.23
2017-12-25T09:42:48.053Z,96099.67
2017-12-25T09:45:17.142Z,96094.46
2017-12-25T09:47:46.186Z,96090.09
2017-12-25T09:50:15.217Z,96085.92
2017-12-25T09:52:44.257Z,96082.17
2017-12-25T09:55:13.307Z,96078.16
2017-12-25T09:57:42.345Z,96082.06
2017-12-25T10:00:11.506Z,96075.58
2017-12-25T10:02:40.538Z,96069.97
2017-12-25T10:05:09.565Z,96064.34
2017-12-25T10:07:42.304Z,96058.72
2017-12-25T10:10:11.331Z,96062.55
2017-12-25T10:15:15.554Z,96055.67
2017-12-25T10:17:44.632Z,96047.56
2017-12-25T10:20:13.678Z,96047.55
2017-12-25T10:22:42.746Z,96049.88
2017-12-25T10:25:11.822Z,96034.10
2017-12-25T10:27:43.883Z,96023.81
2017-12-25T10:30:12.959Z,96018.70
2017-12-25T10:32:41.991Z,96007.40
2017-12-25T10:35:11.066Z,96006.95
2017-12-25T10:37:40.122Z,96003.42
2017-12-25T10:40:09.161Z,95998.81
2017-12-25T10:42:38.193Z,95994.71
2017-12-25T10:45:07.239Z,95987.62
2017-12-25T10:47:36.334Z,95985.06
2017-12-25T10:50:05.331Z,95983.38
2017-12-25T10:52:34.370Z,95971.38
2017-12-25T11:00:13.886Z,95949.38
2017-12-25T11:02:43.867Z,95946.44
2017-12-25T11:05:12.910Z,95945.73
2017-12-25T11:07:42.002Z,95930.80
2017-12-25T11:10:11.038Z,95928.95
2017-12-25T11:12:40.138Z,95920.12
2017-12-25T11:15:09.138Z,95916.53
2017-12-25T11:20:13.439Z,95908.30
2017-12-25T11:22:42.478Z,95901.05
2017-12-25T11:25:11.526Z,95893.03
2017-12-25T11:27:40.569Z,95887.81
2017-12-25T11:30:09.607Z,95881.90
2017-12-25T11:32:43.502Z,95873.19
2017-12-25T11:35:12.530Z,95865.05
2017-12-25T11:37:41.593Z,95858.71
2017-12-25T11:40:10.638Z,95854.48
2017-12-25T11:42:39.674Z,95850.13
2017-12-25T11:45:08.722Z,95846.23
2017-12-25T11:47:37.898Z,95838.34
2017-12-25T11:50:06.938Z,95837.66
2017-12-25T11:52:35.993Z,95831.80
2017-12-25T11:55:05.036Z,95829.17
2017-12-25T11:57:34.082Z,95822.11
2017-12-25T12:00:03.126Z,95819.84
2017-12-25T12:02:32.178Z,95816.22
2017-12-25T12:05:01.238Z,95815.04
2017-12-25T12:07:30.297Z,95812.23
2017-12-25T12:09:59.372Z,95809.18
2017-12-25T12:15:03.679Z,95794.48
2017-12-25T12:17:32.758Z,95785.25
2017-12-25T12:20:02.741Z,95784.14
2017-12-25T12:22:31.786Z,95779.92
2017-12-25T12:25:00.846Z,95780.23
2017-12-25T12:27:29.902Z,95777.72
2017-12-25T12:29:59.879Z,95770.41
2017-12-25T12:32:28.952Z,95761.44
2017-12-25T12:34:59.014Z,95764.75
2017-12-25T12:37:28.064Z,95760.73
2017-12-25T12:39:57.106Z,95762.89
2017-12-25T12:42:26.280Z,95757.41
2017-12-25T12:44:55.294Z,95754.05
2017-12-25T12:47:25.314Z,95756.20
2017-12-25T12:49:55.435Z,95753.84
2017-12-25T12:52:26.411Z,95754.67
2017-12-25T12:57:31.850Z,95738.36
2017-12-25T13:00:00.902Z,95732.42
2017-12-25T13:02:29.948Z,95727.64
2017-12-25T13:05:02.302Z,95721.81
2017-12-25T13:10:06.610Z,95719.91
2017-12-25T13:12:35.645Z,95706.92
2017-12-25T13:15:04.698Z,95709.14
2017-12-25T13:17:33.767Z,95700.33
2017-12-25T13:20:02.838Z,95697.75
2017-12-25T13:25:09.159Z,95689.41
2017-12-25T13:27:38.195Z,95682.74
2017-12-25T13:30:07.254Z,95683.59
2017-12-25T13:32:36.293Z,95683.19
2017-12-25T13:35:05.516Z,95681.86
2017-12-25T13:37:34.579Z,95679.73
2017-12-25T13:40:03.658Z,95676.44
2017-12-25T13:42:32.717Z,95677.13
2017-12-25T13:45:02.735Z,95672.80
2017-12-25T13:47:31.790Z,95675.48
2017-12-25T13:50:00.837Z,95682.50
2017-12-25T13:52:29.893Z,95683.13
2017-12-25T13:54:58.942Z,95688.56
2017-12-25T13:57:28.005Z,95685.13
2017-12-25T13:59:58.983Z,95684.89
2017-12-25T14:02:28.030Z,95687.70
2017-12-25T14:04:57.067Z,95688.27
2017-12-25T14:07:28.112Z,95680.50
2017-12-25T14:09:58.130Z,95681.69
2017-12-25T14:12:27.169Z,95681.99
2017-12-25T14:14:56.330Z,95685.13
2017-12-25T14:17:25.386Z,95688.16
2017-12-25T14:25:04.940Z,95670.89
2017-12-25T14:27:33.965Z,95676.05
2017-12-25T14:30:03.306Z,95677.72
2017-12-25T14:32:32.334Z,95667.38
2017-12-25T14:35:01.370Z,95675.23
2017-12-25T14:37:35.112Z,95667.63
2017-12-25T14:40:04.147Z,95666.04
2017-12-25T14:42:33.190Z,95667.91
2017-12-25T14:47:39.939Z,95655.71
2017-12-25T14:50:08.974Z,95653.75
2017-12-25T14:52:38.013Z,95647.05
2017-12-25T14:55:07.054Z,95649.06
2017-12-25T14:57:36.098Z,95650.18
2017-12-25T15:00:05.162Z,95651.73
2017-12-25T15:02:39.305Z,95653.65
2017-12-25T15:05:08.322Z,95654.96
2017-12-25T15:07:38.358Z,95649.11
2017-12-25T15:10:07.409Z,95648.78
2017-12-25T15:12:36.454Z,95642.37
2017-12-25T15:15:05.503Z,95642.33
2017-12-25T15:17:34.538Z,95636.39
2017-12-25T15:20:03.578Z,95636.91
2017-12-25T15:25:07.817Z,95636.40
2017-12-25T15:27:37.779Z,95633.72
2017-12-25T15:30:06.833Z,95633.66
2017-12-25T15:32:35.878Z,95626.02
2017-12-25T15:35:05.814Z,95626.80
2017-12-25T15:37:35.853Z,95618.92
2017-12-25T15:40:04.894Z,95615.86
2017-12-25T15:42:33.925Z,95612.13
2017-12-25T15:45:08.076Z,95614.95
2017-12-25T15:47:39.074Z,95615.09
2017-12-25T15:50:08.119Z,95609.86
2017-12-25T15:52:39.062Z,95608.17
2017-12-25T15:55:08.142Z,95605.55
2017-12-25T15:57:37.188Z,95600.47
2017-12-25T16:00:06.223Z,95596.94
2017-12-25T16:02:38.382Z,95595.28
2017-12-25T16:05:07.431Z,95591.92
2017-12-25T16:07:36.483Z,95589.84
2017-12-25T16:10:05.524Z,95593.56
2017-12-25T16:12:34.578Z,95590.17
2017-12-25T16:15:03.654Z,95593.98
2017-12-25T16:17:32.698Z,95585.19
2017-12-25T16:22:36.943Z,95585.22
2017-12-25T16:25:07.098Z,95583.50
2017-12-25T16:27:36.142Z,95579.94
2017-12-25T16:32:40.475Z,95575.58
2017-12-25T16:35:27.171Z,95573.52
2017-12-25T16:38:00.266Z,95571.08
2017-12-25T16:40:29.326Z,95567.52
2017-12-25T16:42:58.414Z,95556.47
2017-12-25T16:45:27.481Z,95564.26
2017-12-25T16:47:58.775Z,95564.81
2017-12-25T16:50:28.130Z,95562.91
2017-12-25T16:52:57.182Z,95568.25
2017-12-25T16:55:26.257Z,95561.45
2017-12-25T16:57:55.313Z,95561.89
2017-12-25T17:00:32.823Z,95560.13
2017-12-25T17:03:01.871Z,95562.73
2017-12-25T17:05:30.948Z,95557.34
2017-12-25T17:08:00.014Z,95557.25
2017-12-25T17:10:29.072Z,95552.64
2017-12-25T17:12:58.169Z,95550.83
2017-12-25T17:15:27.210Z,95549.38
2017-12-25T17:17:56.259Z,95548.98
2017-12-25T17:20:25.310Z,95544.73
2017-12-25T17:22:54.392Z,95536.48
2017-12-25T17:25:28.210Z,95538.65
2017-12-25T17:27:57.329Z,95535.63
2017-12-25T17:30:26.434Z,95533.62
2017-12-25T17:32:55.623Z,95528.78
2017-12-25T17:35:30.258Z,95530.39
2017-12-25T17:37:59.346Z,95527.83
2017-12-25T17:40:33.075Z,95521.53
2017-12-25T17:43:02.122Z,95526.00
2017-12-25T17:48:07.362Z,95516.36
2017-12-25T17:50:36.448Z,95514.09
2017-12-25T17:53:05.519Z,95515.47
2017-12-25T17:58:11.431Z,95515.16
2017-12-25T18:00:40.675Z,95508.56
2017-12-25T18:03:11.677Z,95511.07
2017-12-25T18:08:16.213Z,95507.53
2017-12-25T18:10:48.567Z,95498.46
2017-12-25T18:13:18.764Z,95497.53
2017-12-25T18:15:47.798Z,95489.80
2017-12-25T18:18:16.876Z,95491.01
2017-12-25T18:20:49.242Z,95486.84
2017-12-25T18:23:18.354Z,95484.25
2017-12-25T18:25:47.411Z,95485.38
2017-12-25T18:28:16.477Z,95486.22
2017-12-25T18:30:45.554Z,95484.00
2017-12-25T18:33:14.636Z,95486.27
2017-12-25T18:35:45.680Z,95483.26
2017-12-25T18:38:14.730Z,95484.64
2017-12-25T18:40:43.791Z,95478.64
2017-12-25T18:43:12.844Z,95479.52
2017-12-25T18:45:41.894Z,95476.19
2017-12-25T18:48:10.967Z,95474.31
2017-12-25T18:50:43.258Z,95465.67
2017-12-25T18:53:16.976Z,95464.89
2017-12-25T18:55:50.654Z,95460.17
2017-12-25T18:58:19.707Z,95462.25
2017-12-25T19:00:49.171Z,95457.79
2017-12-25T19:03:19.112Z,95457.80
2017-12-25T19:08:26.354Z,95457.51
2017-12-25T19:10:55.414Z,95460.73
2017-12-25T19:13:24.579Z,95456.84
2017-12-25T19:15:53.642Z,95455.88
2017-12-25T19:18:22.935Z,95449.81
2017-12-25T19:26:12.793Z,95438.36
2017-12-25T19:28:43.943Z,95440.26
2017-12-25T19:31:13.031Z,95436.73
2017-12-25T19:33:42.101Z,95435.47
2017-12-25T19:36:12.076Z,95434.07
2017-12-25T19:38:41.162Z,95433.80
2017-12-25T19:41:19.373Z,95431.88
2017-12-25T19:43:48.459Z,95431.44
2017-12-25T19:46:17.493Z,95423.32
2017-12-25T19:48:46.740Z,95420.83
2017-12-25T19:51:15.790Z,95421.45
2017-12-25T19:53:44.974Z,95419.67
2017-12-25T19:56:19.334Z,95419.34
2017-12-25T19:58:48.383Z,95413.16
2017-12-25T20:01:32.284Z,95407.60
2017-12-25T20:04:06.448Z,95407.94
2017-12-25T20:06:35.674Z,95398.05
2017-12-25T20:09:14.207Z,95396.50
2017-12-25T20:11:44.206Z,95393.34
2017-12-25T20:14:15.257Z,95393.79
2017-12-25T20:16:44.305Z,95393.39
2017-12-25T20:19:13.516Z,95390.88
2017-12-25T20:21:42.580Z,95389.73
2017-12-25T20:24:13.878Z,95388.48
2017-12-25T20:26:43.008Z,95388.00
2017-12-25T20:29:13.994Z,95381.70
2017-12-25T20:31:43.113Z,95382.77
2017-12-25T20:34:12.226Z,95377.48
2017-12-25T20:36:41.314Z,95377.22
2017-12-25T20:39:14.856Z,95378.12
2017-12-25T20:41:43.876Z,95369.36
2017-12-25T20:44:16.653Z,95366.96
2017-12-25T20:46:45.721Z,95367.84
2017-12-25T20:51:51.931Z,95376.30
2017-12-25T20:54:25.697Z,95371.78
2017-12-25T20:56:55.701Z,95366.23
2017-12-25T20:59:31.401Z,95364.00
2017-12-25T21:04:37.701Z,95363.53
2017-12-25T21:07:06.745Z,95360.75
2017-12-25T21:09:36.795Z,95360.95
2017-12-25T21:14:41.014Z,95351.36
2017-12-25T21:17:10.607Z,95348.89
2017-12-25T21:25:17.437Z,95347.60
2017-12-25T21:27:51.928Z,95347.84
2017-12-25T21:30:21.021Z,95353.82
2017-12-25T21:32:50.071Z,95348.80
2017-12-25T21:35:19.246Z,95347.88
2017-12-25T21:37:52.730Z,95351.01
2017-12-25T21:40:22.794Z,95345.91
2017-12-25T21:42:53.839Z,95338.66
2017-12-25T21:45:22.904Z,95338.46
2017-12-25T21:47:56.508Z,95340.31
2017-12-25T21:50:29.616Z,95341.27
2017-12-25T21:52:58.910Z,95337.08
2017-12-25T21:58:05.116Z,95329.59
2017-12-25T22:00:36.287Z,95322.45
2017-12-25T22:03:06.163Z,95318.41
2017-12-25T22:05:42.448Z,95318.33
2017-12-25T22:08:11.508Z,95315.41
2017-12-25T22:10:40.560Z,95307.98
2017-12-25T22:13:09.610Z,95313.66
2017-12-25T22:18:25.866Z,95312.01
2017-12-25T22:20:54.934Z,95319.16
2017-12-25T22:23:25.944Z,95314.80
2017-12-25T22:25:55.017Z,95310.98
2017-12-25T22:28:24.353Z,95308.36
2017-12-25T22:30:53.439Z,95305.27
2017-12-25T22:33:22.465Z,95304.52
2017-12-25T22:35:55.501Z,95297.80
2017-12-25T22:38:24.608Z,95295.11
2017-12-25T22:43:32.422Z,95287.38
2017-12-25T22:46:01.484Z,95285.17
2017-12-25T22:48:31.690Z,95283.66
2017-12-25T22:51:00.717Z,95286.98
2017-12-25T22:53:29.814Z,95276.43
2017-12-25T22:56:02.774Z,95268.50
2017-12-25T22:58:31.829Z,95265.20
2017-12-25T23:01:00.862Z,95262.81
2017-12-25T23:03:29.925Z,95264.91
2017-12-25T23:06:02.243Z,95254.47
2017-12-25T23:08:31.453Z,95259.48
2017-12-25T23:11:03.757Z,95248.20
2017-12-25T23:13:32.794Z,95242.73
2017-12-25T23:16:01.842Z,95238.16
2017-12-25T23:18:30.906Z,95238.37
2017-12-25T23:21:03.913Z,95239.70
2017-12-25T23:23:32.958Z,95232.37
2017-12-25T23:26:03.942Z,95226.20
2017-12-25T23:28:32.990Z,95231.38
2017-12-25T23:31:02.050Z,95229.58
2017-12-25T23:33:31.116Z,95230.17
2017-12-25T23:36:04.054Z,95231.76
2017-12-25T23:38:33.136Z,95230.53
2017-12-25T23:43:37.427Z,95223.89
2017-12-25T23:46:06.474Z,95219.65
2017-12-25T23:48:35.530Z,95218.47
2017-12-25T23:51:05.788Z,95213.98
2017-12-25T23:53:34.794Z,95214.55
2017-12-25T23:56:06.913Z,95221.00
2017-12-25T23:58:35.986Z,95217.89
